sensor_id;sensor_type;location;lat;lon;timestamp;P1;durP1;ratioP1;P2;durP2;ratioP2
42866;SDS011;39461;40.948;73.006;2023-06-10T00:01:09;15.40;;;5.53;;
42866;SDS011;39461;40.948;73.006;2023-06-10T00:03:42;15.88;;;5.07;;
42866;SDS011;39461;40.948;73.006;2023-06-10T00:06:16;19.27;;;5.30;;
42866;SDS011;39461;40.948;73.006;2023-06-10T00:08:49;8.52;;;4.45;;
42866;SDS011;39461;40.948;73.006;2023-06-10T00:11:23;17.85;;;4.93;;
42866;SDS011;39461;40.948;73.006;2023-06-10T00:13:57;11.02;;;4.60;;
42866;SDS011;39461;40.948;73.006;2023-06-10T00:16:30;9.70;;;4.03;;
42866;SDS011;39461;40.948;73.006;2023-06-10T00:19:05;12.52;;;4.18;;
42866;SDS011;39461;40.948;73.006;2023-06-10T00:21:40;13.68;;;4.85;;
42866;SDS011;39461;40.948;73.006;2023-06-10T00:24:16;14.80;;;5.45;;
42866;SDS011;39461;40.948;73.006;2023-06-10T00:26:49;10.45;;;4.80;;
42866;SDS011;39461;40.948;73.006;2023-06-10T00:29:22;14.15;;;5.05;;
42866;SDS011;39461;40.948;73.006;2023-06-10T00:31:56;11.25;;;4.68;;
42866;SDS011;39461;40.948;73.006;2023-06-10T00:34:30;13.02;;;4.90;;
42866;SDS011;39461;40.948;73.006;2023-06-10T00:37:04;15.35;;;4.95;;
42866;SDS011;39461;40.948;73.006;2023-06-10T00:39:37;12.70;;;4.30;;
42866;SDS011;39461;40.948;73.006;2023-06-10T00:42:10;18.38;;;4.95;;
42866;SDS011;39461;40.948;73.006;2023-06-10T00:44:44;21.70;;;6.03;;
42866;SDS011;39461;40.948;73.006;2023-06-10T00:47:11;16.33;;;5.22;;
42866;SDS011;39461;40.948;73.006;2023-06-10T00:49:44;14.70;;;5.30;;
42866;SDS011;39461;40.948;73.006;2023-06-10T00:52:20;21.95;;;6.05;;
42866;SDS011;39461;40.948;73.006;2023-06-10T00:55:00;13.90;;;4.70;;
42866;SDS011;39461;40.948;73.006;2023-06-10T00:57:34;17.75;;;5.28;;
42866;SDS011;39461;40.948;73.006;2023-06-10T01:00:07;13.00;;;5.18;;
42866;SDS011;39461;40.948;73.006;2023-06-10T01:02:42;13.82;;;4.63;;
42866;SDS011;39461;40.948;73.006;2023-06-10T01:05:17;16.58;;;5.28;;
42866;SDS011;39461;40.948;73.006;2023-06-10T01:07:51;16.88;;;5.95;;
42866;SDS011;39461;40.948;73.006;2023-06-10T01:10:36;24.17;;;5.63;;
42866;SDS011;39461;40.948;73.006;2023-06-10T01:13:11;16.40;;;6.43;;
42866;SDS011;39461;40.948;73.006;2023-06-10T01:15:47;15.90;;;5.97;;
42866;SDS011;39461;40.948;73.006;2023-06-10T01:18:20;15.13;;;5.60;;
42866;SDS011;39461;40.948;73.006;2023-06-10T01:20:53;17.45;;;7.38;;
42866;SDS011;39461;40.948;73.006;2023-06-10T01:23:26;19.67;;;7.32;;
42866;SDS011;39461;40.948;73.006;2023-06-10T01:26:01;25.17;;;8.07;;
42866;SDS011;39461;40.948;73.006;2023-06-10T01:28:36;17.15;;;7.53;;
42866;SDS011;39461;40.948;73.006;2023-06-10T01:31:20;24.05;;;8.00;;
42866;SDS011;39461;40.948;73.006;2023-06-10T01:33:57;16.80;;;6.63;;
42866;SDS011;39461;40.948;73.006;2023-06-10T01:36:30;19.80;;;7.72;;
42866;SDS011;39461;40.948;73.006;2023-06-10T01:38:58;12.77;;;5.75;;
42866;SDS011;39461;40.948;73.006;2023-06-10T01:41:37;17.48;;;6.55;;
42866;SDS011;39461;40.948;73.006;2023-06-10T01:44:17;15.38;;;6.35;;
42866;SDS011;39461;40.948;73.006;2023-06-10T01:46:52;20.98;;;7.00;;
42866;SDS011;39461;40.948;73.006;2023-06-10T01:49:27;19.67;;;7.93;;
42866;SDS011;39461;40.948;73.006;2023-06-10T01:52:02;18.90;;;8.23;;
42866;SDS011;39461;40.948;73.006;2023-06-10T01:54:37;12.75;;;7.35;;
42866;SDS011;39461;40.948;73.006;2023-06-10T02:00:12;29.98;;;10.05;;
42866;SDS011;39461;40.948;73.006;2023-06-10T02:02:47;20.58;;;7.82;;
42866;SDS011;39461;40.948;73.006;2023-06-10T02:05:23;17.02;;;7.85;;
42866;SDS011;39461;40.948;73.006;2023-06-10T02:07:56;18.88;;;7.25;;
42866;SDS011;39461;40.948;73.006;2023-06-10T02:10:29;14.77;;;6.55;;
42866;SDS011;39461;40.948;73.006;2023-06-10T02:13:02;14.05;;;5.72;;
42866;SDS011;39461;40.948;73.006;2023-06-10T02:15:35;16.77;;;5.72;;
42866;SDS011;39461;40.948;73.006;2023-06-10T02:18:08;17.52;;;7.00;;
42866;SDS011;39461;40.948;73.006;2023-06-10T02:20:43;25.27;;;7.05;;
42866;SDS011;39461;40.948;73.006;2023-06-10T02:23:17;27.33;;;7.07;;
42866;SDS011;39461;40.948;73.006;2023-06-10T02:25:50;16.98;;;6.20;;
42866;SDS011;39461;40.948;73.006;2023-06-10T02:28:23;14.75;;;5.82;;
42866;SDS011;39461;40.948;73.006;2023-06-10T02:31:02;10.82;;;4.72;;
42866;SDS011;39461;40.948;73.006;2023-06-10T02:33:36;12.75;;;5.50;;
42866;SDS011;39461;40.948;73.006;2023-06-10T02:36:12;15.75;;;5.82;;
42866;SDS011;39461;40.948;73.006;2023-06-10T02:38:46;15.60;;;5.75;;
42866;SDS011;39461;40.948;73.006;2023-06-10T02:41:20;14.05;;;6.03;;
42866;SDS011;39461;40.948;73.006;2023-06-10T02:43:52;15.50;;;6.40;;
42866;SDS011;39461;40.948;73.006;2023-06-10T02:46:22;28.40;;;7.00;;
42866;SDS011;39461;40.948;73.006;2023-06-10T02:48:55;17.05;;;6.07;;
42866;SDS011;39461;40.948;73.006;2023-06-10T02:51:28;24.42;;;6.28;;
42866;SDS011;39461;40.948;73.006;2023-06-10T02:54:01;20.45;;;7.03;;
42866;SDS011;39461;40.948;73.006;2023-06-10T02:56:36;19.67;;;6.47;;
42866;SDS011;39461;40.948;73.006;2023-06-10T02:59:13;15.77;;;6.10;;
42866;SDS011;39461;40.948;73.006;2023-06-10T03:01:47;17.00;;;5.70;;
42866;SDS011;39461;40.948;73.006;2023-06-10T03:04:20;18.42;;;6.40;;
42866;SDS011;39461;40.948;73.006;2023-06-10T03:06:57;19.65;;;5.57;;
42866;SDS011;39461;40.948;73.006;2023-06-10T03:09:32;13.70;;;5.90;;
42866;SDS011;39461;40.948;73.006;2023-06-10T03:12:05;13.15;;;5.93;;
42866;SDS011;39461;40.948;73.006;2023-06-10T03:14:39;17.63;;;6.10;;
42866;SDS011;39461;40.948;73.006;2023-06-10T03:17:18;13.82;;;5.38;;
42866;SDS011;39461;40.948;73.006;2023-06-10T03:19:52;12.52;;;4.95;;
42866;SDS011;39461;40.948;73.006;2023-06-10T03:22:25;16.88;;;5.28;;
42866;SDS011;39461;40.948;73.006;2023-06-10T03:24:58;18.13;;;5.80;;
42866;SDS011;39461;40.948;73.006;2023-06-10T03:27:31;20.67;;;5.40;;
42866;SDS011;39461;40.948;73.006;2023-06-10T03:30:11;14.23;;;5.65;;
42866;SDS011;39461;40.948;73.006;2023-06-10T03:32:49;23.40;;;5.93;;
42866;SDS011;39461;40.948;73.006;2023-06-10T03:35:23;17.92;;;6.25;;
42866;SDS011;39461;40.948;73.006;2023-06-10T03:40:57;16.67;;;5.20;;
42866;SDS011;39461;40.948;73.006;2023-06-10T03:43:32;24.48;;;7.07;;
42866;SDS011;39461;40.948;73.006;2023-06-10T03:46:07;25.25;;;7.03;;
42866;SDS011;39461;40.948;73.006;2023-06-10T03:48:42;23.70;;;7.07;;
42866;SDS011;39461;40.948;73.006;2023-06-10T03:54:15;16.17;;;6.65;;
42866;SDS011;39461;40.948;73.006;2023-06-10T03:56:50;30.52;;;7.32;;
42866;SDS011;39461;40.948;73.006;2023-06-10T03:59:25;34.65;;;6.35;;
42866;SDS011;39461;40.948;73.006;2023-06-10T04:02:00;36.63;;;6.55;;
42866;SDS011;39461;40.948;73.006;2023-06-10T04:04:35;28.20;;;6.00;;
42866;SDS011;39461;40.948;73.006;2023-06-10T04:07:11;29.50;;;5.90;;
42866;SDS011;39461;40.948;73.006;2023-06-10T04:09:47;32.20;;;6.07;;
42866;SDS011;39461;40.948;73.006;2023-06-10T04:12:23;34.63;;;6.25;;
42866;SDS011;39461;40.948;73.006;2023-06-10T04:14:58;41.97;;;7.82;;
42866;SDS011;39461;40.948;73.006;2023-06-10T04:17:34;48.83;;;7.07;;
42866;SDS011;39461;40.948;73.006;2023-06-10T04:20:09;21.88;;;6.05;;
42866;SDS011;39461;40.948;73.006;2023-06-10T04:22:44;37.30;;;6.53;;
42866;SDS011;39461;40.948;73.006;2023-06-10T04:25:19;30.42;;;5.97;;
42866;SDS011;39461;40.948;73.006;2023-06-10T04:27:54;41.40;;;6.05;;
42866;SDS011;39461;40.948;73.006;2023-06-10T04:30:21;37.33;;;6.68;;
42866;SDS011;39461;40.948;73.006;2023-06-10T04:32:57;29.90;;;5.93;;
42866;SDS011;39461;40.948;73.006;2023-06-10T04:35:32;35.58;;;5.60;;
42866;SDS011;39461;40.948;73.006;2023-06-10T04:38:04;24.63;;;4.90;;
42866;SDS011;39461;40.948;73.006;2023-06-10T04:40:39;23.52;;;6.15;;
42866;SDS011;39461;40.948;73.006;2023-06-10T04:43:05;30.00;;;5.43;;
42866;SDS011;39461;40.948;73.006;2023-06-10T04:45:39;32.58;;;6.13;;
42866;SDS011;39461;40.948;73.006;2023-06-10T04:48:12;32.53;;;5.88;;
42866;SDS011;39461;40.948;73.006;2023-06-10T04:50:47;28.38;;;5.35;;
42866;SDS011;39461;40.948;73.006;2023-06-10T04:53:26;25.98;;;6.30;;
42866;SDS011;39461;40.948;73.006;2023-06-10T04:56:02;22.58;;;4.57;;
42866;SDS011;39461;40.948;73.006;2023-06-10T04:58:37;30.60;;;5.32;;
42866;SDS011;39461;40.948;73.006;2023-06-10T05:01:12;28.27;;;6.25;;
42866;SDS011;39461;40.948;73.006;2023-06-10T05:03:47;29.65;;;6.78;;
42866;SDS011;39461;40.948;73.006;2023-06-10T05:06:22;30.40;;;5.20;;
42866;SDS011;39461;40.948;73.006;2023-06-10T05:08:56;32.10;;;5.88;;
42866;SDS011;39461;40.948;73.006;2023-06-10T05:11:31;22.88;;;5.60;;
42866;SDS011;39461;40.948;73.006;2023-06-10T05:14:06;29.60;;;6.25;;
42866;SDS011;39461;40.948;73.006;2023-06-10T05:16:41;28.55;;;6.20;;
42866;SDS011;39461;40.948;73.006;2023-06-10T05:19:16;51.92;;;10.15;;
42866;SDS011;39461;40.948;73.006;2023-06-10T05:21:51;46.85;;;10.77;;
42866;SDS011;39461;40.948;73.006;2023-06-10T05:24:27;30.23;;;5.90;;
42866;SDS011;39461;40.948;73.006;2023-06-10T05:27:02;34.67;;;9.70;;
42866;SDS011;39461;40.948;73.006;2023-06-10T05:29:30;82.00;;;11.55;;
42866;SDS011;39461;40.948;73.006;2023-06-10T05:32:05;58.22;;;9.02;;
42866;SDS011;39461;40.948;73.006;2023-06-10T05:34:40;29.92;;;5.95;;
42866;SDS011;39461;40.948;73.006;2023-06-10T05:37:15;38.35;;;6.97;;
42866;SDS011;39461;40.948;73.006;2023-06-10T05:39:50;66.40;;;10.32;;
42866;SDS011;39461;40.948;73.006;2023-06-10T05:42:29;56.33;;;9.80;;
42866;SDS011;39461;40.948;73.006;2023-06-10T05:45:02;30.38;;;7.00;;
42866;SDS011;39461;40.948;73.006;2023-06-10T05:47:32;34.50;;;8.30;;
42866;SDS011;39461;40.948;73.006;2023-06-10T05:50:07;26.35;;;6.10;;
42866;SDS011;39461;40.948;73.006;2023-06-10T05:52:35;34.50;;;7.85;;
42866;SDS011;39461;40.948;73.006;2023-06-10T05:55:13;61.28;;;11.38;;
42866;SDS011;39461;40.948;73.006;2023-06-10T05:58:00;69.38;;;12.88;;
42866;SDS011;39461;40.948;73.006;2023-06-10T06:00:35;45.75;;;8.18;;
42866;SDS011;39461;40.948;73.006;2023-06-10T06:03:10;40.20;;;8.10;;
42866;SDS011;39461;40.948;73.006;2023-06-10T06:05:45;94.55;;;15.20;;
42866;SDS011;39461;40.948;73.006;2023-06-10T06:08:20;74.32;;;11.82;;
42866;SDS011;39461;40.948;73.006;2023-06-10T06:10:55;37.95;;;7.75;;
42866;SDS011;39461;40.948;73.006;2023-06-10T06:13:29;47.30;;;9.20;;
42866;SDS011;39461;40.948;73.006;2023-06-10T06:16:04;67.50;;;11.27;;
42866;SDS011;39461;40.948;73.006;2023-06-10T06:18:39;36.25;;;7.40;;
42866;SDS011;39461;40.948;73.006;2023-06-10T06:21:14;42.72;;;7.80;;
42866;SDS011;39461;40.948;73.006;2023-06-10T06:23:49;44.25;;;7.13;;
42866;SDS011;39461;40.948;73.006;2023-06-10T06:26:25;33.88;;;6.20;;
42866;SDS011;39461;40.948;73.006;2023-06-10T06:28:59;38.60;;;6.05;;
42866;SDS011;39461;40.948;73.006;2023-06-10T06:31:32;40.50;;;6.72;;
42866;SDS011;39461;40.948;73.006;2023-06-10T06:34:05;35.28;;;6.28;;
42866;SDS011;39461;40.948;73.006;2023-06-10T06:36:38;32.80;;;5.40;;
42866;SDS011;39461;40.948;73.006;2023-06-10T06:39:11;28.33;;;5.93;;
42866;SDS011;39461;40.948;73.006;2023-06-10T06:41:44;26.33;;;6.05;;
42866;SDS011;39461;40.948;73.006;2023-06-10T06:44:13;27.13;;;5.30;;
42866;SDS011;39461;40.948;73.006;2023-06-10T06:46:40;35.85;;;6.50;;
42866;SDS011;39461;40.948;73.006;2023-06-10T06:49:13;33.97;;;6.43;;
42866;SDS011;39461;40.948;73.006;2023-06-10T06:51:48;27.17;;;6.45;;
42866;SDS011;39461;40.948;73.006;2023-06-10T06:54:21;35.20;;;5.85;;
42866;SDS011;39461;40.948;73.006;2023-06-10T06:56:54;41.97;;;7.85;;
42866;SDS011;39461;40.948;73.006;2023-06-10T06:59:27;40.25;;;7.38;;
42866;SDS011;39461;40.948;73.006;2023-06-10T07:02:00;26.52;;;5.38;;
42866;SDS011;39461;40.948;73.006;2023-06-10T07:04:33;58.97;;;10.07;;
42866;SDS011;39461;40.948;73.006;2023-06-10T07:07:07;29.27;;;5.85;;
42866;SDS011;39461;40.948;73.006;2023-06-10T07:09:37;34.08;;;6.22;;
42866;SDS011;39461;40.948;73.006;2023-06-10T07:12:12;43.15;;;6.30;;
42866;SDS011;39461;40.948;73.006;2023-06-10T07:14:45;31.48;;;6.03;;
42866;SDS011;39461;40.948;73.006;2023-06-10T07:17:18;28.58;;;5.97;;
42866;SDS011;39461;40.948;73.006;2023-06-10T07:19:55;24.50;;;5.05;;
42866;SDS011;39461;40.948;73.006;2023-06-10T07:22:27;30.27;;;5.80;;
42866;SDS011;39461;40.948;73.006;2023-06-10T07:25:00;33.78;;;6.47;;
42866;SDS011;39461;40.948;73.006;2023-06-10T07:27:33;40.75;;;5.90;;
42866;SDS011;39461;40.948;73.006;2023-06-10T07:30:08;27.23;;;5.32;;
42866;SDS011;39461;40.948;73.006;2023-06-10T07:32:41;29.65;;;5.80;;
42866;SDS011;39461;40.948;73.006;2023-06-10T07:35:17;29.98;;;5.03;;
42866;SDS011;39461;40.948;73.006;2023-06-10T07:37:52;29.27;;;5.85;;
42866;SDS011;39461;40.948;73.006;2023-06-10T07:40:27;30.05;;;6.00;;
42866;SDS011;39461;40.948;73.006;2023-06-10T07:43:01;25.60;;;4.78;;
42866;SDS011;39461;40.948;73.006;2023-06-10T07:45:36;20.85;;;4.90;;
42866;SDS011;39461;40.948;73.006;2023-06-10T07:48:11;31.75;;;6.78;;
42866;SDS011;39461;40.948;73.006;2023-06-10T07:50:44;20.77;;;5.50;;
42866;SDS011;39461;40.948;73.006;2023-06-10T07:53:11;27.05;;;5.32;;
42866;SDS011;39461;40.948;73.006;2023-06-10T07:55:44;22.65;;;4.90;;
42866;SDS011;39461;40.948;73.006;2023-06-10T07:58:17;19.98;;;4.43;;
42866;SDS011;39461;40.948;73.006;2023-06-10T08:00:50;27.98;;;5.07;;
42866;SDS011;39461;40.948;73.006;2023-06-10T08:03:25;21.45;;;5.03;;
42866;SDS011;39461;40.948;73.006;2023-06-10T08:05:58;29.05;;;5.95;;
42866;SDS011;39461;40.948;73.006;2023-06-10T08:08:34;39.80;;;5.93;;
42866;SDS011;39461;40.948;73.006;2023-06-10T08:11:14;27.83;;;5.75;;
42866;SDS011;39461;40.948;73.006;2023-06-10T08:13:53;20.88;;;5.50;;
42866;SDS011;39461;40.948;73.006;2023-06-10T08:16:22;23.40;;;5.53;;
42866;SDS011;39461;40.948;73.006;2023-06-10T08:18:57;17.63;;;5.22;;
42866;SDS011;39461;40.948;73.006;2023-06-10T08:21:33;19.75;;;5.25;;
42866;SDS011;39461;40.948;73.006;2023-06-10T08:24:06;18.95;;;4.70;;
42866;SDS011;39461;40.948;73.006;2023-06-10T08:26:40;19.92;;;5.43;;
42866;SDS011;39461;40.948;73.006;2023-06-10T08:29:13;11.88;;;4.30;;
42866;SDS011;39461;40.948;73.006;2023-06-10T08:31:46;21.75;;;4.93;;
42866;SDS011;39461;40.948;73.006;2023-06-10T08:34:19;28.98;;;6.05;;
42866;SDS011;39461;40.948;73.006;2023-06-10T08:36:52;27.00;;;5.53;;
42866;SDS011;39461;40.948;73.006;2023-06-10T08:39:22;31.30;;;6.47;;
42866;SDS011;39461;40.948;73.006;2023-06-10T08:44:38;47.25;;;6.68;;
42866;SDS011;39461;40.948;73.006;2023-06-10T08:49:45;32.42;;;7.13;;
42866;SDS011;39461;40.948;73.006;2023-06-10T08:52:15;31.00;;;6.28;;
42866;SDS011;39461;40.948;73.006;2023-06-10T08:54:59;23.45;;;5.93;;
42866;SDS011;39461;40.948;73.006;2023-06-10T09:00:34;38.47;;;8.18;;
42866;SDS011;39461;40.948;73.006;2023-06-10T09:06:09;24.40;;;5.60;;
42866;SDS011;39461;40.948;73.006;2023-06-10T09:08:43;29.08;;;6.07;;
42866;SDS011;39461;40.948;73.006;2023-06-10T09:11:16;35.90;;;6.40;;
42866;SDS011;39461;40.948;73.006;2023-06-10T09:13:45;23.85;;;5.93;;
42866;SDS011;39461;40.948;73.006;2023-06-10T09:16:14;21.60;;;5.07;;
42866;SDS011;39461;40.948;73.006;2023-06-10T09:18:48;31.10;;;6.43;;
42866;SDS011;39461;40.948;73.006;2023-06-10T09:21:27;32.40;;;6.22;;
42866;SDS011;39461;40.948;73.006;2023-06-10T09:24:01;28.50;;;6.60;;
42866;SDS011;39461;40.948;73.006;2023-06-10T09:26:34;27.30;;;6.13;;
42866;SDS011;39461;40.948;73.006;2023-06-10T09:29:07;28.77;;;5.75;;
42866;SDS011;39461;40.948;73.006;2023-06-10T09:31:42;39.00;;;7.55;;
42866;SDS011;39461;40.948;73.006;2023-06-10T09:34:16;37.78;;;6.07;;
42866;SDS011;39461;40.948;73.006;2023-06-10T09:36:49;29.75;;;6.65;;
42866;SDS011;39461;40.948;73.006;2023-06-10T09:39:22;32.55;;;6.85;;
42866;SDS011;39461;40.948;73.006;2023-06-10T09:41:57;31.13;;;6.28;;
42866;SDS011;39461;40.948;73.006;2023-06-10T09:44:31;35.65;;;6.88;;
42866;SDS011;39461;40.948;73.006;2023-06-10T09:47:06;38.70;;;7.20;;
42866;SDS011;39461;40.948;73.006;2023-06-10T09:49:42;34.28;;;6.05;;
42866;SDS011;39461;40.948;73.006;2023-06-10T09:52:27;27.90;;;5.78;;
42866;SDS011;39461;40.948;73.006;2023-06-10T09:55:03;32.55;;;5.45;;
42866;SDS011;39461;40.948;73.006;2023-06-10T09:57:38;29.35;;;5.50;;
42866;SDS011;39461;40.948;73.006;2023-06-10T10:00:13;31.55;;;6.47;;
42866;SDS011;39461;40.948;73.006;2023-06-10T10:02:53;41.95;;;6.22;;
42866;SDS011;39461;40.948;73.006;2023-06-10T10:05:26;27.50;;;5.90;;
42866;SDS011;39461;40.948;73.006;2023-06-10T10:08:03;37.03;;;6.45;;
42866;SDS011;39461;40.948;73.006;2023-06-10T10:10:38;24.42;;;5.78;;
42866;SDS011;39461;40.948;73.006;2023-06-10T10:13:13;43.33;;;5.97;;
42866;SDS011;39461;40.948;73.006;2023-06-10T10:15:49;28.02;;;5.88;;
42866;SDS011;39461;40.948;73.006;2023-06-10T10:18:24;27.88;;;5.22;;
42866;SDS011;39461;40.948;73.006;2023-06-10T10:21:11;30.20;;;6.03;;
42866;SDS011;39461;40.948;73.006;2023-06-10T10:26:23;25.55;;;5.50;;
42866;SDS011;39461;40.948;73.006;2023-06-10T10:31:53;28.92;;;5.68;;
42866;SDS011;39461;40.948;73.006;2023-06-10T10:34:34;26.08;;;5.95;;
42866;SDS011;39461;40.948;73.006;2023-06-10T10:37:10;26.80;;;5.93;;
42866;SDS011;39461;40.948;73.006;2023-06-10T10:39:43;32.80;;;6.50;;
42866;SDS011;39461;40.948;73.006;2023-06-10T10:42:16;23.10;;;5.68;;
42866;SDS011;39461;40.948;73.006;2023-06-10T10:44:47;17.05;;;5.97;;
42866;SDS011;39461;40.948;73.006;2023-06-10T10:47:18;24.90;;;5.72;;
42866;SDS011;39461;40.948;73.006;2023-06-10T10:49:50;29.38;;;6.70;;
42866;SDS011;39461;40.948;73.006;2023-06-10T10:52:28;29.20;;;5.47;;
42866;SDS011;39461;40.948;73.006;2023-06-10T10:55:21;22.55;;;6.57;;
42866;SDS011;39461;40.948;73.006;2023-06-10T10:57:58;29.42;;;6.68;;
42866;SDS011;39461;40.948;73.006;2023-06-10T11:00:26;26.95;;;6.15;;
42866;SDS011;39461;40.948;73.006;2023-06-10T11:05:42;27.45;;;6.50;;
42866;SDS011;39461;40.948;73.006;2023-06-10T11:11:38;22.40;;;5.38;;
42866;SDS011;39461;40.948;73.006;2023-06-10T11:14:06;33.35;;;7.00;;
42866;SDS011;39461;40.948;73.006;2023-06-10T11:16:40;26.05;;;6.20;;
42866;SDS011;39461;40.948;73.006;2023-06-10T11:19:37;21.25;;;5.55;;
42866;SDS011;39461;40.948;73.006;2023-06-10T11:22:15;23.27;;;5.68;;
42866;SDS011;39461;40.948;73.006;2023-06-10T11:24:49;21.83;;;6.03;;
42866;SDS011;39461;40.948;73.006;2023-06-10T11:27:23;24.00;;;6.40;;
42866;SDS011;39461;40.948;73.006;2023-06-10T11:29:57;26.95;;;5.65;;
42866;SDS011;39461;40.948;73.006;2023-06-10T11:32:32;19.63;;;4.88;;
42866;SDS011;39461;40.948;73.006;2023-06-10T11:35:07;15.38;;;5.10;;
42866;SDS011;39461;40.948;73.006;2023-06-10T11:37:46;18.23;;;5.13;;
42866;SDS011;39461;40.948;73.006;2023-06-10T11:40:22;14.60;;;5.10;;
42866;SDS011;39461;40.948;73.006;2023-06-10T11:42:57;29.95;;;5.93;;
42866;SDS011;39461;40.948;73.006;2023-06-10T11:45:37;15.15;;;5.13;;
42866;SDS011;39461;40.948;73.006;2023-06-10T11:48:13;14.13;;;5.13;;
42866;SDS011;39461;40.948;73.006;2023-06-10T11:50:46;18.40;;;5.55;;
42866;SDS011;39461;40.948;73.006;2023-06-10T11:53:19;20.35;;;5.47;;
42866;SDS011;39461;40.948;73.006;2023-06-10T11:55:53;15.95;;;4.72;;
42866;SDS011;39461;40.948;73.006;2023-06-10T11:58:28;19.92;;;5.38;;
42866;SDS011;39461;40.948;73.006;2023-06-10T12:01:03;23.00;;;5.38;;
42866;SDS011;39461;40.948;73.006;2023-06-10T12:03:38;14.95;;;4.80;;
42866;SDS011;39461;40.948;73.006;2023-06-10T12:06:13;17.30;;;4.65;;
42866;SDS011;39461;40.948;73.006;2023-06-10T12:08:46;11.80;;;5.03;;
42866;SDS011;39461;40.948;73.006;2023-06-10T12:11:25;20.00;;;5.45;;
42866;SDS011;39461;40.948;73.006;2023-06-10T12:14:00;18.23;;;5.03;;
42866;SDS011;39461;40.948;73.006;2023-06-10T12:16:37;16.48;;;5.65;;
42866;SDS011;39461;40.948;73.006;2023-06-10T12:19:11;18.52;;;5.53;;
42866;SDS011;39461;40.948;73.006;2023-06-10T12:21:47;22.40;;;5.78;;
42866;SDS011;39461;40.948;73.006;2023-06-10T12:24:22;21.42;;;6.05;;
42866;SDS011;39461;40.948;73.006;2023-06-10T12:26:57;23.25;;;5.43;;
42866;SDS011;39461;40.948;73.006;2023-06-10T12:35:25;28.33;;;6.22;;
42866;SDS011;39461;40.948;73.006;2023-06-10T12:38:01;25.23;;;5.18;;
42866;SDS011;39461;40.948;73.006;2023-06-10T12:40:37;17.48;;;5.63;;
42866;SDS011;39461;40.948;73.006;2023-06-10T12:43:06;26.25;;;5.57;;
42866;SDS011;39461;40.948;73.006;2023-06-10T12:45:41;26.38;;;6.00;;
42866;SDS011;39461;40.948;73.006;2023-06-10T12:48:23;33.72;;;6.95;;
42866;SDS011;39461;40.948;73.006;2023-06-10T12:51:00;21.27;;;6.28;;
42866;SDS011;39461;40.948;73.006;2023-06-10T12:53:35;29.60;;;6.32;;
42866;SDS011;39461;40.948;73.006;2023-06-10T12:56:12;18.17;;;5.90;;
42866;SDS011;39461;40.948;73.006;2023-06-10T12:58:46;41.80;;;7.82;;
42866;SDS011;39461;40.948;73.006;2023-06-10T13:01:19;24.23;;;6.65;;
42866;SDS011;39461;40.948;73.006;2023-06-10T13:03:53;21.33;;;6.13;;
42866;SDS011;39461;40.948;73.006;2023-06-10T13:06:26;18.85;;;5.95;;
42866;SDS011;39461;40.948;73.006;2023-06-10T13:09:00;25.45;;;6.57;;
42866;SDS011;39461;40.948;73.006;2023-06-10T13:11:35;15.95;;;5.38;;
42866;SDS011;39461;40.948;73.006;2023-06-10T13:14:09;21.60;;;5.50;;
42866;SDS011;39461;40.948;73.006;2023-06-10T13:16:43;19.08;;;6.22;;
42866;SDS011;39461;40.948;73.006;2023-06-10T13:19:16;15.57;;;6.05;;
42866;SDS011;39461;40.948;73.006;2023-06-10T13:21:53;21.52;;;5.50;;
42866;SDS011;39461;40.948;73.006;2023-06-10T13:24:26;16.48;;;5.78;;
42866;SDS011;39461;40.948;73.006;2023-06-10T13:27:01;21.70;;;5.75;;
42866;SDS011;39461;40.948;73.006;2023-06-10T13:29:35;19.05;;;4.78;;
42866;SDS011;39461;40.948;73.006;2023-06-10T13:32:09;24.63;;;7.60;;
42866;SDS011;39461;40.948;73.006;2023-06-10T13:34:46;26.20;;;11.65;;
42866;SDS011;39461;40.948;73.006;2023-06-10T13:37:19;21.10;;;10.50;;
42866;SDS011;39461;40.948;73.006;2023-06-10T13:39:54;28.20;;;10.05;;
42866;SDS011;39461;40.948;73.006;2023-06-10T13:42:31;20.15;;;9.20;;
42866;SDS011;39461;40.948;73.006;2023-06-10T13:45:07;22.33;;;7.72;;
42866;SDS011;39461;40.948;73.006;2023-06-10T13:47:41;24.92;;;5.78;;
42866;SDS011;39461;40.948;73.006;2023-06-10T13:50:14;24.63;;;7.97;;
42866;SDS011;39461;40.948;73.006;2023-06-10T13:52:49;26.38;;;7.18;;
42866;SDS011;39461;40.948;73.006;2023-06-10T13:55:22;21.88;;;5.88;;
42866;SDS011;39461;40.948;73.006;2023-06-10T13:57:56;15.25;;;5.80;;
42866;SDS011;39461;40.948;73.006;2023-06-10T14:00:31;23.60;;;7.75;;
42866;SDS011;39461;40.948;73.006;2023-06-10T14:03:00;24.95;;;6.65;;
42866;SDS011;39461;40.948;73.006;2023-06-10T14:05:37;22.73;;;7.15;;
42866;SDS011;39461;40.948;73.006;2023-06-10T14:08:12;24.98;;;7.13;;
42866;SDS011;39461;40.948;73.006;2023-06-10T14:10:47;41.88;;;15.90;;
42866;SDS011;39461;40.948;73.006;2023-06-10T14:13:24;41.72;;;15.90;;
42866;SDS011;39461;40.948;73.006;2023-06-10T14:15:58;38.45;;;11.35;;
42866;SDS011;39461;40.948;73.006;2023-06-10T14:18:36;36.42;;;11.07;;
42866;SDS011;39461;40.948;73.006;2023-06-10T14:21:09;32.50;;;10.75;;
42866;SDS011;39461;40.948;73.006;2023-06-10T14:23:42;30.40;;;10.82;;
42866;SDS011;39461;40.948;73.006;2023-06-10T14:26:21;45.42;;;15.27;;
42866;SDS011;39461;40.948;73.006;2023-06-10T14:28:55;40.05;;;15.38;;
42866;SDS011;39461;40.948;73.006;2023-06-10T14:31:34;45.35;;;17.25;;
42866;SDS011;39461;40.948;73.006;2023-06-10T14:34:13;50.67;;;16.88;;
42866;SDS011;39461;40.948;73.006;2023-06-10T14:36:46;42.40;;;17.15;;
42866;SDS011;39461;40.948;73.006;2023-06-10T14:39:19;49.92;;;19.33;;
42866;SDS011;39461;40.948;73.006;2023-06-10T14:41:46;57.42;;;20.65;;
42866;SDS011;39461;40.948;73.006;2023-06-10T14:44:19;51.78;;;20.67;;
42866;SDS011;39461;40.948;73.006;2023-06-10T14:46:48;62.30;;;25.52;;
42866;SDS011;39461;40.948;73.006;2023-06-10T14:49:17;85.30;;;42.22;;
42866;SDS011;39461;40.948;73.006;2023-06-10T14:51:50;78.45;;;36.45;;
42866;SDS011;39461;40.948;73.006;2023-06-10T14:54:25;62.95;;;31.13;;
42866;SDS011;39461;40.948;73.006;2023-06-10T14:56:58;62.55;;;27.70;;
42866;SDS011;39461;40.948;73.006;2023-06-10T14:59:37;59.58;;;26.95;;
42866;SDS011;39461;40.948;73.006;2023-06-10T15:02:12;48.65;;;21.17;;
42866;SDS011;39461;40.948;73.006;2023-06-10T15:04:39;51.20;;;22.17;;
42866;SDS011;39461;40.948;73.006;2023-06-10T15:07:16;58.63;;;20.13;;
42866;SDS011;39461;40.948;73.006;2023-06-10T15:09:51;46.72;;;17.67;;
42866;SDS011;39461;40.948;73.006;2023-06-10T15:12:26;44.05;;;16.85;;
42866;SDS011;39461;40.948;73.006;2023-06-10T15:14:59;41.70;;;14.85;;
42866;SDS011;39461;40.948;73.006;2023-06-10T15:17:33;45.60;;;13.93;;
42866;SDS011;39461;40.948;73.006;2023-06-10T15:20:08;46.30;;;15.30;;
42866;SDS011;39461;40.948;73.006;2023-06-10T15:22:35;51.15;;;16.45;;
42866;SDS011;39461;40.948;73.006;2023-06-10T15:25:10;34.40;;;13.18;;
42866;SDS011;39461;40.948;73.006;2023-06-10T15:27:45;38.25;;;13.05;;
42866;SDS011;39461;40.948;73.006;2023-06-10T15:30:25;40.03;;;12.32;;
42866;SDS011;39461;40.948;73.006;2023-06-10T15:35:58;31.58;;;11.85;;
42866;SDS011;39461;40.948;73.006;2023-06-10T15:38:33;30.40;;;11.43;;
42866;SDS011;39461;40.948;73.006;2023-06-10T15:41:08;30.33;;;11.63;;
42866;SDS011;39461;40.948;73.006;2023-06-10T15:46:35;36.00;;;11.90;;